sensor_id;sensor_type;location;lat;lon;timestamp;pressure;altitude;pressure_sealevel;temperature;humidity
31357;BME280;60001;48.404;11.738;2023-05-21T00:00:06;95952.16;;;17.75;62.53
31357;BME280;60001;48.404;11.738;2023-05-21T00:01:41;95969.84;;;17.94;61.94
31357;BME280;60001;48.404;11.738;2023-05-21T00:03:14;95961.03;;;17.93;61.82
31357;BME280;60001;48.404;11.738;2023-05-21T00:04:46;95953.63;;;17.82;61.93
31357;BME280;60001;48.404;11.738;2023-05-21T00:06:17;95956.63;;;17.89;61.53
31357;BME280;60001;48.404;11.738;2023-05-21T00:07:51;95947.66;;;17.85;61.61
31357;BME280;60001;48.404;11.738;2023-05-21T00:09:24;95957.31;;;17.94;60.80
31357;BME280;60001;48.404;11.738;2023-05-21T00:10:56;95932.50;;;17.71;61.80
31357;BME280;60001;48.404;11.738;2023-05-21T00:12:27;95955.84;;;17.88;60.98
31357;BME280;60001;48.404;11.738;2023-05-21T00:13:59;95954.09;;;17.84;61.04
31357;BME280;60001;48.404;11.738;2023-05-21T00:15:31;95953.63;;;17.82;60.82
31357;BME280;60001;48.404;11.738;2023-05-21T00:17:03;95921.75;;;17.63;61.21
31357;BME280;60001;48.404;11.738;2023-05-21T00:18:34;95951.22;;;17.80;61.33
31357;BME280;60001;48.404;11.738;2023-05-21T00:20:06;95954.41;;;17.82;61.15
31357;BME280;60001;48.404;11.738;2023-05-21T00:21:39;95950.88;;;17.73;61.45
31357;BME280;60001;48.404;11.738;2023-05-21T00:23:12;95941.78;;;17.74;61.17
31357;BME280;60001;48.404;11.738;2023-05-21T00:24:48;95947.91;;;17.74;61.22
31357;BME280;60001;48.404;11.738;2023-05-21T00:26:19;95944.75;;;17.72;61.17
31357;BME280;60001;48.404;11.738;2023-05-21T00:27:54;95949.03;;;17.73;61.53
31357;BME280;60001;48.404;11.738;2023-05-21T00:29:26;95946.13;;;17.70;61.26
31357;BME280;60001;48.404;11.738;2023-05-21T00:30:59;95946.06;;;17.61;60.75
31357;BME280;60001;48.404;11.738;2023-05-21T00:32:31;95938.06;;;17.61;60.56
31357;BME280;60001;48.404;11.738;2023-05-21T00:34:02;95937.63;;;17.68;60.87
31357;BME280;60001;48.404;11.738;2023-05-21T00:35:33;95930.72;;;17.67;60.24
31357;BME280;60001;48.404;11.738;2023-05-21T00:37:05;95941.88;;;17.69;60.36
31357;BME280;60001;48.404;11.738;2023-05-21T00:38:41;95943.44;;;17.70;60.65
31357;BME280;60001;48.404;11.738;2023-05-21T00:40:14;95938.53;;;17.63;61.22
31357;BME280;60001;48.404;11.738;2023-05-21T00:41:46;95934.19;;;17.67;59.99
31357;BME280;60001;48.404;11.738;2023-05-21T00:43:18;95930.19;;;17.56;60.05
31357;BME280;60001;48.404;11.738;2023-05-21T00:44:49;95932.41;;;17.63;60.88
31357;BME280;60001;48.404;11.738;2023-05-21T00:46:23;95930.06;;;17.61;60.68
31357;BME280;60001;48.404;11.738;2023-05-21T00:47:58;95929.28;;;17.61;60.35
31357;BME280;60001;48.404;11.738;2023-05-21T00:49:32;95931.69;;;17.48;60.92
31357;BME280;60001;48.404;11.738;2023-05-21T00:51:04;95919.16;;;17.49;59.98
31357;BME280;60001;48.404;11.738;2023-05-21T00:52:35;95927.50;;;17.56;60.27
31357;BME280;60001;48.404;11.738;2023-05-21T00:54:12;95924.06;;;17.56;60.26
31357;BME280;60001;48.404;11.738;2023-05-21T00:55:45;95915.06;;;17.51;59.60
31357;BME280;60001;48.404;11.738;2023-05-21T00:57:18;95922.16;;;17.56;59.64
31357;BME280;60001;48.404;11.738;2023-05-21T00:58:50;95914.63;;;17.58;59.67
31357;BME280;60001;48.404;11.738;2023-05-21T01:00:22;95927.41;;;17.39;60.38
31357;BME280;60001;48.404;11.738;2023-05-21T01:01:55;95917.56;;;17.48;60.48
31357;BME280;60001;48.404;11.738;2023-05-21T01:03:34;95919.16;;;17.49;60.33
31357;BME280;60001;48.404;11.738;2023-05-21T01:05:08;95920.91;;;17.53;59.80
31357;BME280;60001;48.404;11.738;2023-05-21T01:06:40;95924.22;;;17.59;59.77
31357;BME280;60001;48.404;11.738;2023-05-21T01:08:12;95921.50;;;17.50;59.28
31357;BME280;60001;48.404;11.738;2023-05-21T01:09:45;95921.34;;;17.47;59.53
31357;BME280;60001;48.404;11.738;2023-05-21T01:11:18;95913.81;;;17.49;59.37
31357;BME280;60001;48.404;11.738;2023-05-21T01:12:52;95917.72;;;17.51;59.07
31357;BME280;60001;48.404;11.738;2023-05-21T01:14:26;95927.16;;;17.49;58.66
31357;BME280;60001;48.404;11.738;2023-05-21T01:15:58;95928.91;;;17.53;59.19
31357;BME280;60001;48.404;11.738;2023-05-21T01:17:31;95913.81;;;17.49;58.81
31357;BME280;60001;48.404;11.738;2023-05-21T01:19:04;95920.41;;;17.51;58.91
31357;BME280;60001;48.404;11.738;2023-05-21T01:20:36;95916.47;;;17.49;59.35
31357;BME280;60001;48.404;11.738;2023-05-21T01:22:11;95919.63;;;17.51;58.69
31357;BME280;60001;48.404;11.738;2023-05-21T01:23:45;95916.16;;;17.50;58.08
31357;BME280;60001;48.404;11.738;2023-05-21T01:25:16;95911.09;;;17.40;58.23
31357;BME280;60001;48.404;11.738;2023-05-21T01:26:48;95918.34;;;17.48;58.33
31357;BME280;60001;48.404;11.738;2023-05-21T01:28:19;95919.44;;;17.47;58.02
31357;BME280;60001;48.404;11.738;2023-05-21T01:29:51;95917.09;;;17.46;58.08
31357;BME280;60001;48.404;11.738;2023-05-21T01:31:38;95922.91;;;17.48;58.35
31357;BME280;60001;48.404;11.738;2023-05-21T01:33:17;95920.03;;;17.44;58.46
31357;BME280;60001;48.404;11.738;2023-05-21T01:34:55;95918.91;;;17.37;58.30
31357;BME280;60001;48.404;11.738;2023-05-21T01:36:35;95919.88;;;17.41;58.39
31357;BME280;60001;48.404;11.738;2023-05-21T01:38:14;95920.19;;;17.39;58.79
31357;BME280;60001;48.404;11.738;2023-05-21T01:39:54;95919.22;;;17.35;58.92
31357;BME280;60001;48.404;11.738;2023-05-21T01:41:30;95923.56;;;17.31;58.86
31357;BME280;60001;48.404;11.738;2023-05-21T01:43:05;95918.22;;;17.31;59.31
31357;BME280;60001;48.404;11.738;2023-05-21T01:44:39;95915.75;;;17.35;58.66
31357;BME280;60001;48.404;11.738;2023-05-21T01:46:16;95910.06;;;17.27;58.47
31357;BME280;60001;48.404;11.738;2023-05-21T01:47:50;95919.22;;;17.35;58.58
31357;BME280;60001;48.404;11.738;2023-05-21T01:49:24;95914.28;;;17.29;58.32
31357;BME280;60001;48.404;11.738;2023-05-21T01:50:59;95909.84;;;17.24;58.24
31357;BME280;60001;48.404;11.738;2023-05-21T01:52:32;95912.53;;;17.24;58.93
31357;BME280;60001;48.404;11.738;2023-05-21T01:54:03;95915.88;;;17.30;58.06
31357;BME280;60001;48.404;11.738;2023-05-21T01:55:37;95910.53;;;17.30;58.59
31357;BME280;60001;48.404;11.738;2023-05-21T01:57:14;95908.28;;;17.23;58.17
31357;BME280;60001;48.404;11.738;2023-05-21T01:58:46;95911.75;;;17.23;58.39
31357;BME280;60001;48.404;11.738;2023-05-21T02:03:50;95903.56;;;17.20;58.40
31357;BME280;60001;48.404;11.738;2023-05-21T02:05:21;95881.59;;;17.01;58.43
31357;BME280;60001;48.404;11.738;2023-05-21T02:06:53;95910.22;;;17.09;58.73
31357;BME280;60001;48.404;11.738;2023-05-21T02:08:25;95907.00;;;16.98;59.56
31357;BME280;60001;48.404;11.738;2023-05-21T02:09:57;95901.84;;;17.02;58.71
31357;BME280;60001;48.404;11.738;2023-05-21T02:11:30;95898.59;;;17.05;58.95
31357;BME280;60001;48.404;11.738;2023-05-21T02:13:01;95896.09;;;17.08;58.37
31357;BME280;60001;48.404;11.738;2023-05-21T02:14:33;95903.00;;;17.09;58.73
31357;BME280;60001;48.404;11.738;2023-05-21T02:16:05;95907.25;;;17.10;58.61
31357;BME280;60001;48.404;11.738;2023-05-21T02:17:39;95906.09;;;17.03;58.49
31357;BME280;60001;48.404;11.738;2023-05-21T02:19:14;95908.47;;;17.04;59.16
31357;BME280;60001;48.404;11.738;2023-05-21T02:20:46;95904.94;;;16.95;59.20
31357;BME280;60001;48.404;11.738;2023-05-21T02:22:17;95911.72;;;17.01;59.18
31357;BME280;60001;48.404;11.738;2023-05-21T02:23:48;95904.94;;;16.95;59.05
31357;BME280;60001;48.404;11.738;2023-05-21T02:25:20;95901.88;;;16.88;59.05
31357;BME280;60001;48.404;11.738;2023-05-21T02:26:53;95895.88;;;16.82;59.04
31357;BME280;60001;48.404;11.738;2023-05-21T02:28:24;95903.00;;;16.87;59.15
31357;BME280;60001;48.404;11.738;2023-05-21T02:29:56;95910.69;;;16.88;58.93
31357;BME280;60001;48.404;11.738;2023-05-21T02:31:28;95910.09;;;16.91;59.14
31357;BME280;60001;48.404;11.738;2023-05-21T02:33:00;95904.75;;;16.91;58.38
31357;BME280;60001;48.404;11.738;2023-05-21T02:34:32;95907.44;;;16.91;58.37
31357;BME280;60001;48.404;11.738;2023-05-21T02:36:06;95911.00;;;16.87;59.69
31357;BME280;60001;48.404;11.738;2023-05-21T02:37:42;95908.78;;;16.89;58.80
31357;BME280;60001;48.404;11.738;2023-05-21T02:39:14;95908.44;;;16.82;59.05
31357;BME280;60001;48.404;11.738;2023-05-21T02:40:46;95907.34;;;16.83;58.48
31357;BME280;60001;48.404;11.738;2023-05-21T02:42:18;95906.13;;;16.89;58.49
31357;BME280;60001;48.404;11.738;2023-05-21T02:43:50;95897.66;;;16.87;58.37
31357;BME280;60001;48.404;11.738;2023-05-21T02:45:22;95903.88;;;16.82;59.26
31357;BME280;60001;48.404;11.738;2023-05-21T02:46:54;95897.59;;;16.78;59.23
31357;BME280;60001;48.404;11.738;2023-05-21T02:48:25;95899.06;;;16.84;58.63
31357;BME280;60001;48.404;11.738;2023-05-21T02:49:59;95883.66;;;16.67;58.70
31357;BME280;60001;48.404;11.738;2023-05-21T02:51:31;95903.03;;;16.73;58.55
31357;BME280;60001;48.404;11.738;2023-05-21T02:53:02;95905.22;;;16.71;58.99
31357;BME280;60001;48.404;11.738;2023-05-21T02:54:35;95898.69;;;16.63;59.02
31357;BME280;60001;48.404;11.738;2023-05-21T02:56:06;95901.81;;;16.65;58.71
31357;BME280;60001;48.404;11.738;2023-05-21T02:57:40;95898.56;;;16.68;58.54
31357;BME280;60001;48.404;11.738;2023-05-21T02:59:10;95895.09;;;16.68;58.31
31357;BME280;60001;48.404;11.738;2023-05-21T03:00:42;95897.50;;;16.69;58.02
31357;BME280;60001;48.404;11.738;2023-05-21T03:02:14;95902.53;;;16.71;57.83
31357;BME280;60001;48.404;11.738;2023-05-21T03:03:45;95901.94;;;16.74;57.44
31357;BME280;60001;48.404;11.738;2023-05-21T03:05:16;95892.66;;;16.71;57.62
31357;BME280;60001;48.404;11.738;2023-05-21T03:06:48;95895.72;;;16.65;57.85
31357;BME280;60001;48.404;11.738;2023-05-21T03:08:21;95890.31;;;16.56;57.79
31357;BME280;60001;48.404;11.738;2023-05-21T03:09:52;95895.88;;;16.68;57.62
31357;BME280;60001;48.404;11.738;2023-05-21T03:11:24;95897.28;;;16.66;57.86
31357;BME280;60001;48.404;11.738;2023-05-21T03:12:57;95892.75;;;16.66;58.18
31357;BME280;60001;48.404;11.738;2023-05-21T03:14:29;95898.06;;;16.66;57.53
31357;BME280;60001;48.404;11.738;2023-05-21T03:16:01;95889.75;;;16.68;57.84
31357;BME280;60001;48.404;11.738;2023-05-21T03:17:33;95894.31;;;16.67;57.34
31357;BME280;60001;48.404;11.738;2023-05-21T03:19:04;95891.38;;;16.69;57.34
31357;BME280;60001;48.404;11.738;2023-05-21T03:20:36;95888.81;;;16.64;57.96
31357;BME280;60001;48.404;11.738;2023-05-21T03:22:12;95888.59;;;16.60;57.82
31357;BME280;60001;48.404;11.738;2023-05-21T03:23:44;95891.66;;;16.67;57.41
31357;BME280;60001;48.404;11.738;2023-05-21T03:25:16;95889.69;;;16.59;57.79
31357;BME280;60001;48.404;11.738;2023-05-21T03:26:47;95888.22;;;16.53;57.75
31357;BME280;60001;48.404;11.738;2023-05-21T03:28:21;95887.03;;;16.59;57.57
31357;BME280;60001;48.404;11.738;2023-05-21T03:29:52;95886.66;;;16.52;57.70
31357;BME280;60001;48.404;11.738;2023-05-21T03:31:25;95883.88;;;16.57;57.84
31357;BME280;60001;48.404;11.738;2023-05-21T03:32:57;95887.25;;;16.49;58.13
31357;BME280;60001;48.404;11.738;2023-05-21T03:34:30;95892.06;;;16.47;58.80
31357;BME280;60001;48.404;11.738;2023-05-21T03:36:04;95880.34;;;16.48;58.43
31357;BME280;60001;48.404;11.738;2023-05-21T03:37:36;95888.16;;;16.44;58.73
31357;BME280;60001;48.404;11.738;2023-05-21T03:39:07;95893.97;;;16.47;58.32
31357;BME280;60001;48.404;11.738;2023-05-21T03:40:39;95889.72;;;16.45;58.16
31357;BME280;60001;48.404;11.738;2023-05-21T03:42:11;95883.03;;;16.48;58.34
31357;BME280;60001;48.404;11.738;2023-05-21T03:43:44;95884.50;;;16.40;58.40
31357;BME280;60001;48.404;11.738;2023-05-21T03:45:16;95884.50;;;16.40;58.76
31357;BME280;60001;48.404;11.738;2023-05-21T03:46:48;95888.44;;;16.43;58.72
31357;BME280;60001;48.404;11.738;2023-05-21T03:48:19;95876.88;;;16.48;58.83
31357;BME280;60001;48.404;11.738;2023-05-21T03:49:50;95883.69;;;16.40;58.99
31357;BME280;60001;48.404;11.738;2023-05-21T03:51:22;95890.13;;;16.39;58.60
31357;BME280;60001;48.404;11.738;2023-05-21T03:52:59;95887.34;;;16.44;58.30
31357;BME280;60001;48.404;11.738;2023-05-21T03:54:31;95891.13;;;16.43;59.02
31357;BME280;60001;48.404;11.738;2023-05-21T03:56:03;95882.75;;;16.36;58.92
31357;BME280;60001;48.404;11.738;2023-05-21T03:57:34;95893.41;;;16.22;59.04
31357;BME280;60001;48.404;11.738;2023-05-21T03:59:08;95886.09;;;16.28;58.88
31357;BME280;60001;48.404;11.738;2023-05-21T04:00:39;95879.88;;;16.32;58.52
31357;BME280;60001;48.404;11.738;2023-05-21T04:02:11;95879.56;;;16.34;59.31
31357;BME280;60001;48.404;11.738;2023-05-21T04:03:45;95895.16;;;16.40;58.48
31357;BME280;60001;48.404;11.738;2023-05-21T04:05:16;95895.97;;;16.27;59.44
31357;BME280;60001;48.404;11.738;2023-05-21T04:06:50;95892.59;;;16.35;59.10
31357;BME280;60001;48.404;11.738;2023-05-21T04:08:21;95894.19;;;16.36;58.83
31357;BME280;60001;48.404;11.738;2023-05-21T04:09:52;95898.72;;;16.36;58.47
31357;BME280;60001;48.404;11.738;2023-05-21T04:11:24;95881.56;;;16.28;58.85
31357;BME280;60001;48.404;11.738;2023-05-21T04:12:55;95897.81;;;16.40;58.56
31357;BME280;60001;48.404;11.738;2023-05-21T04:14:28;95898.59;;;16.41;59.12
31357;BME280;60001;48.404;11.738;2023-05-21T04:16:00;95898.19;;;16.48;58.40
31357;BME280;60001;48.404;11.738;2023-05-21T04:17:32;95899.50;;;16.50;58.17
31357;BME280;60001;48.404;11.738;2023-05-21T04:19:03;95900.19;;;16.42;59.14
31357;BME280;60001;48.404;11.738;2023-05-21T04:20:34;95904.03;;;16.50;58.71
31357;BME280;60001;48.404;11.738;2023-05-21T04:22:06;95902.06;;;16.41;59.16
31357;BME280;60001;48.404;11.738;2023-05-21T04:23:38;95902.88;;;16.42;58.83
31357;BME280;60001;48.404;11.738;2023-05-21T04:25:10;95905.91;;;16.49;59.05
31357;BME280;60001;48.404;11.738;2023-05-21T04:26:43;95906.00;;;16.44;59.17
31357;BME280;60001;48.404;11.738;2023-05-21T04:28:15;95905.91;;;16.49;59.72
31357;BME280;60001;48.404;11.738;2023-05-21T04:29:50;95906.78;;;16.44;59.50
31357;BME280;60001;48.404;11.738;2023-05-21T04:31:24;95908.59;;;16.49;59.20
31357;BME280;60001;48.404;11.738;2023-05-21T04:32:55;95905.91;;;16.49;59.37
31357;BME280;60001;48.404;11.738;2023-05-21T04:34:27;95905.22;;;16.57;58.90
31357;BME280;60001;48.404;11.738;2023-05-21T04:35:59;95903.72;;;16.51;59.31
31357;BME280;60001;48.404;11.738;2023-05-21T04:37:30;95914.28;;;16.56;59.31
31357;BME280;60001;48.404;11.738;2023-05-21T04:39:04;95911.81;;;16.46;60.24
31357;BME280;60001;48.404;11.738;2023-05-21T04:40:36;95910.16;;;16.50;59.78
31357;BME280;60001;48.404;11.738;2023-05-21T04:42:07;95907.97;;;16.52;60.11
31357;BME280;60001;48.404;11.738;2023-05-21T04:43:40;95910.16;;;16.50;59.92
31357;BME280;60001;48.404;11.738;2023-05-21T04:45:14;95915.88;;;16.57;60.08
31357;BME280;60001;48.404;11.738;2023-05-21T04:46:47;95921.28;;;16.52;60.12
31357;BME280;60001;48.404;11.738;2023-05-21T04:48:19;95912.59;;;16.60;60.27
31357;BME280;60001;48.404;11.738;2023-05-21T04:49:50;95912.78;;;16.64;59.73
31357;BME280;60001;48.404;11.738;2023-05-21T04:51:23;95910.13;;;16.64;60.23
31357;BME280;60001;48.404;11.738;2023-05-21T04:52:54;95920.78;;;16.64;59.67
31357;BME280;60001;48.404;11.738;2023-05-21T04:54:26;95911.63;;;16.70;59.65
31357;BME280;60001;48.404;11.738;2023-05-21T04:55:58;95917.63;;;16.76;59.45
31357;BME280;60001;48.404;11.738;2023-05-21T04:57:29;95905.75;;;16.68;59.81
31357;BME280;60001;48.404;11.738;2023-05-21T04:59:01;95907.78;;;16.76;59.45
31357;BME280;60001;48.404;11.738;2023-05-21T05:00:33;95921.28;;;16.80;60.25
31357;BME280;60001;48.404;11.738;2023-05-21T05:02:06;95910.72;;;16.75;60.57
31357;BME280;60001;48.404;11.738;2023-05-21T05:03:38;95912.50;;;16.79;60.79
31357;BME280;60001;48.404;11.738;2023-05-21T05:05:10;95922.94;;;16.76;60.30
31357;BME280;60001;48.404;11.738;2023-05-21T05:06:42;95924.56;;;16.63;61.70
31357;BME280;60001;48.404;11.738;2023-05-21T05:08:14;95906.31;;;16.70;61.21
31357;BME280;60001;48.404;11.738;2023-05-21T05:09:45;95914.06;;;16.80;61.14
31357;BME280;60001;48.404;11.738;2023-05-21T05:11:17;95915.53;;;16.86;60.73
31357;BME280;60001;48.404;11.738;2023-05-21T05:12:49;95914.84;;;16.67;61.59
31357;BME280;60001;48.404;11.738;2023-05-21T05:14:20;95922.00;;;16.71;61.44
31357;BME280;60001;48.404;11.738;2023-05-21T05:15:53;95915.47;;;16.78;61.04
31357;BME280;60001;48.404;11.738;2023-05-21T05:17:26;95920.19;;;16.81;61.55
31357;BME280;60001;48.404;11.738;2023-05-21T05:18:58;95917.03;;;16.79;61.21
31357;BME280;60001;48.404;11.738;2023-05-21T05:20:30;95921.66;;;16.87;61.14
31357;BME280;60001;48.404;11.738;2023-05-21T05:22:02;95919.59;;;16.84;61.52
31357;BME280;60001;48.404;11.738;2023-05-21T05:23:33;95909.91;;;16.88;61.65
31357;BME280;60001;48.404;11.738;2023-05-21T05:25:06;95916.94;;;16.84;61.95
31357;BME280;60001;48.404;11.738;2023-05-21T05:26:38;95922.34;;;16.92;61.20
31357;BME280;60001;48.404;11.738;2023-05-21T05:28:09;95919.97;;;16.91;62.40
31357;BME280;60001;48.404;11.738;2023-05-21T05:29:41;95895.81;;;16.74;62.42
31357;BME280;60001;48.404;11.738;2023-05-21T05:31:14;95924.59;;;16.99;62.25
31357;BME280;60001;48.404;11.738;2023-05-21T05:32:45;95914.59;;;17.05;61.11
31357;BME280;60001;48.404;11.738;2023-05-21T05:34:17;95911.84;;;16.96;61.37
31357;BME280;60001;48.404;11.738;2023-05-21T05:35:49;95906.28;;;17.06;61.16
31357;BME280;60001;48.404;11.738;2023-05-21T05:37:21;95915.25;;;17.10;61.47
31357;BME280;60001;48.404;11.738;2023-05-21T05:38:52;95922.34;;;17.15;62.18
31357;BME280;60001;48.404;11.738;2023-05-21T05:40:24;95920.38;;;17.20;61.17
31357;BME280;60001;48.404;11.738;2023-05-21T05:41:56;95917.81;;;17.15;61.91
31357;BME280;60001;48.404;11.738;2023-05-21T05:43:27;95915.03;;;17.20;61.79
31357;BME280;60001;48.404;11.738;2023-05-21T05:44:59;95918.41;;;17.12;61.22
31357;BME280;60001;48.404;11.738;2023-05-21T05:46:32;95916.13;;;17.19;61.08
31357;BME280;60001;48.404;11.738;2023-05-21T05:48:04;95918.16;;;17.22;61.20
31357;BME280;60001;48.404;11.738;2023-05-21T05:49:36;95918.41;;;17.35;60.39
31357;BME280;60001;48.404;11.738;2023-05-21T05:51:08;95920.63;;;17.33;61.21
31357;BME280;60001;48.404;11.738;2023-05-21T05:52:41;95921.44;;;17.42;61.41
31357;BME280;60001;48.404;11.738;2023-05-21T05:54:12;95920.19;;;17.39;61.16
31357;BME280;60001;48.404;11.738;2023-05-21T05:55:44;95910.22;;;17.31;61.37
31357;BME280;60001;48.404;11.738;2023-05-21T05:57:16;95922.78;;;17.31;61.71
31357;BME280;60001;48.404;11.738;2023-05-21T05:58:48;95924.00;;;17.47;61.01
31357;BME280;60001;48.404;11.738;2023-05-21T06:00:19;95920.97;;;17.40;60.61
31357;BME280;60001;48.404;11.738;2023-05-21T06:01:53;95926.84;;;17.28;60.91
31357;BME280;60001;48.404;11.738;2023-05-21T06:03:25;95923.50;;;17.45;61.04
31357;BME280;60001;48.404;11.738;2023-05-21T06:04:57;95923.94;;;17.61;61.06
31357;BME280;60001;48.404;11.738;2023-05-21T06:06:29;95927.38;;;17.61;60.47
31357;BME280;60001;48.404;11.738;2023-05-21T06:08:00;95930.41;;;17.68;60.61
31357;BME280;60001;48.404;11.738;2023-05-21T06:09:32;95929.38;;;17.78;60.32
31357;BME280;60001;48.404;11.738;2023-05-21T06:11:04;95921.56;;;17.82;60.58
31357;BME280;60001;48.404;11.738;2023-05-21T06:12:36;95921.31;;;17.69;61.21
31357;BME280;60001;48.404;11.738;2023-05-21T06:14:08;95926.72;;;17.78;59.97
31357;BME280;60001;48.404;11.738;2023-05-21T06:15:39;95939.75;;;17.79;60.66
31357;BME280;60001;48.404;11.738;2023-05-21T06:17:14;95930.72;;;17.89;59.71
31357;BME280;60001;48.404;11.738;2023-05-21T06:18:45;95931.38;;;17.95;59.97
31357;BME280;60001;48.404;11.738;2023-05-21T06:20:17;95928.50;;;17.91;59.67
31357;BME280;60001;48.404;11.738;2023-05-21T06:21:49;95926.13;;;17.81;60.80
31357;BME280;60001;48.404;11.738;2023-05-21T06:23:20;95923.72;;;17.79;61.04
31357;BME280;60001;48.404;11.738;2023-05-21T06:24:52;95923.19;;;17.91;60.44
31357;BME280;60001;48.404;11.738;2023-05-21T06:26:24;95936.44;;;18.05;59.95
31357;BME280;60001;48.404;11.738;2023-05-21T06:27:56;95926.28;;;18.16;60.21
31357;BME280;60001;48.404;11.738;2023-05-21T06:29:27;95926.72;;;18.09;60.02
31357;BME280;60001;48.404;11.738;2023-05-21T06:30:59;95918.41;;;18.19;59.71
31357;BME280;60001;48.404;11.738;2023-05-21T06:32:31;95934.13;;;18.21;59.94
31357;BME280;60001;48.404;11.738;2023-05-21T06:34:03;95918.28;;;18.24;59.70
31357;BME280;60001;48.404;11.738;2023-05-21T06:35:35;95923.84;;;18.37;59.71
31357;BME280;60001;48.404;11.738;2023-05-21T06:37:08;95924.56;;;18.28;59.06
31357;BME280;60001;48.404;11.738;2023-05-21T06:38:40;95926.97;;;18.30;59.55
31357;BME280;60001;48.404;11.738;2023-05-21T06:40:12;95924.31;;;18.39;59.36
31357;BME280;60001;48.404;11.738;2023-05-21T06:41:43;95915.66;;;18.42;60.06
31357;BME280;60001;48.404;11.738;2023-05-21T06:43:15;95917.59;;;18.58;58.94
31357;BME280;60001;48.404;11.738;2023-05-21T06:44:47;95927.66;;;18.61;58.66
31357;BME280;60001;48.404;11.738;2023-05-21T06:46:18;95926.84;;;18.44;59.09
31357;BME280;60001;48.404;11.738;2023-05-21T06:47:51;95918.19;;;18.55;59.35
31357;BME280;60001;48.404;11.738;2023-05-21T06:49:22;95917.09;;;18.56;58.18
31357;BME280;60001;48.404;11.738;2023-05-21T06:50:53;95924.38;;;18.65;58.82
31357;BME280;60001;48.404;11.738;2023-05-21T06:52:25;95934.31;;;18.73;57.96
31357;BME280;60001;48.404;11.738;2023-05-21T06:53:57;95921.59;;;18.87;57.46
31357;BME280;60001;48.404;11.738;2023-05-21T06:55:29;95925.06;;;18.79;57.49
31357;BME280;60001;48.404;11.738;2023-05-21T06:57:00;95930.56;;;18.91;57.45
31357;BME280;60001;48.404;11.738;2023-05-21T06:58:32;95930.56;;;18.91;58.22
31357;BME280;60001;48.404;11.738;2023-05-21T07:00:05;95930.41;;;19.05;57.98
31357;BME280;60001;48.404;11.738;2023-05-21T07:01:38;95930.72;;;19.12;58.38
31357;BME280;60001;48.404;11.738;2023-05-21T07:03:13;95907.28;;;19.00;56.91
31357;BME280;60001;48.404;11.738;2023-05-21T07:04:45;95928.38;;;18.93;58.32
31357;BME280;60001;48.404;11.738;2023-05-21T07:06:17;95926.81;;;19.09;58.25
31357;BME280;60001;48.404;11.738;2023-05-21T07:07:49;95918.75;;;19.18;56.59
31357;BME280;60001;48.404;11.738;2023-05-21T07:09:21;95927.09;;;19.25;56.68
31357;BME280;60001;48.404;11.738;2023-05-21T07:10:52;95923.34;;;19.26;56.84
31357;BME280;60001;48.404;11.738;2023-05-21T07:12:25;95932.63;;;19.37;56.90
31357;BME280;60001;48.404;11.738;2023-05-21T07:13:58;95927.59;;;19.27;56.20
31357;BME280;60001;48.404;11.738;2023-05-21T07:15:31;95928.22;;;19.41;55.81
31357;BME280;60001;48.404;11.738;2023-05-21T07:17:03;95932.47;;;19.42;55.87
31357;BME280;60001;48.404;11.738;2023-05-21T07:18:36;95927.41;;;19.50;55.81
31357;BME280;60001;48.404;11.738;2023-05-21T07:20:08;95920.19;;;19.41;56.66
31357;BME280;60001;48.404;11.738;2023-05-21T07:21:41;95926.75;;;19.53;56.79
31357;BME280;60001;48.404;11.738;2023-05-21T07:23:12;95922.97;;;19.54;56.86
31357;BME280;60001;48.404;11.738;2023-05-21T07:24:44;95932.28;;;19.65;56.31
31357;BME280;60001;48.404;11.738;2023-05-21T07:26:16;95924.09;;;19.70;56.37
31357;BME280;60001;48.404;11.738;2023-05-21T07:27:48;95926.31;;;19.51;55.90
31357;BME280;60001;48.404;11.738;2023-05-21T07:29:20;95931.50;;;19.64;54.58
31357;BME280;60001;48.404;11.738;2023-05-21T07:30:51;95930.72;;;19.64;54.48
31357;BME280;60001;48.404;11.738;2023-05-21T07:32:23;95927.56;;;19.53;56.47
31357;BME280;60001;48.404;11.738;2023-05-21T07:33:57;95927.41;;;19.67;54.79
31357;BME280;60001;48.404;11.738;2023-05-21T07:35:29;95931.34;;;19.69;54.90
31357;BME280;60001;48.404;11.738;2023-05-21T07:37:01;95930.06;;;19.76;55.72
31357;BME280;60001;48.404;11.738;2023-05-21T07:38:32;95922.81;;;19.76;54.36
31357;BME280;60001;48.404;11.738;2023-05-21T07:40:06;95921.09;;;19.71;55.07
31357;BME280;60001;48.404;11.738;2023-05-21T07:41:38;95933.22;;;19.52;56.92
31357;BME280;60001;48.404;11.738;2023-05-21T07:43:10;95934.00;;;19.52;56.56
31357;BME280;60001;48.404;11.738;2023-05-21T07:44:42;95927.88;;;19.52;55.90
31357;BME280;60001;48.404;11.738;2023-05-21T07:46:14;95929.91;;;19.46;57.13
31357;BME280;60001;48.404;11.738;2023-05-21T07:47:46;95931.34;;;19.61;55.75
31357;BME280;60001;48.404;11.738;2023-05-21T07:49:19;95934.97;;;19.65;56.03
31357;BME280;60001;48.404;11.738;2023-05-21T07:50:51;95932.28;;;19.65;55.71
31357;BME280;60001;48.404;11.738;2023-05-21T07:52:23;95934.84;;;19.61;55.77
31357;BME280;60001;48.404;11.738;2023-05-21T07:53:54;95927.09;;;19.60;56.04
31357;BME280;60001;48.404;11.738;2023-05-21T07:55:26;95929.94;;;19.63;55.67
31357;BME280;60001;48.404;11.738;2023-05-21T07:56:58;95932.28;;;19.65;54.95
31357;BME280;60001;48.404;11.738;2023-05-21T07:58:31;95929.16;;;19.63;55.32
31357;BME280;60001;48.404;11.738;2023-05-21T08:00:05;95932.00;;;19.58;55.11
31357;BME280;60001;48.404;11.738;2023-05-21T08:01:38;95929.63;;;19.65;55.74
31357;BME280;60001;48.404;11.738;2023-05-21T08:03:10;95928.84;;;19.64;55.59
31357;BME280;60001;48.404;11.738;2023-05-21T08:04:43;95933.41;;;19.55;56.38
31357;BME280;60001;48.404;11.738;2023-05-21T08:06:15;95905.81;;;19.46;55.44